Time;durP1;ratioP1;P1;durP2;ratioP2;P2;SDS_P1;SDS_P2;PMS_P1;PMS_P2;Temp;Humidity;BMP_temperature;BMP_pressure;BME280_temperature;BME280_humidity;BME280_pressure;Samples;Min_cycle;Max_cycle;Signal;HPM_P1;HPM_P2
2022/01/01 00:01:49;;;;;;;16.42;7.90;;;;;;;;;;5071762;28;20039;-65
2022/01/01 00:04:16;;;;;;;12.27;6.07;;;;;;;;;;5071666;28;20024;-66
2022/01/01 00:06:42;;;;;;;14.35;7.22;;;;;;;;;;5071492;28;20100;-72
2022/01/01 00:09:08;;;;;;;10.18;6.05;;;;;;;;;;5070187;28;20039;-62
2022/01/01 00:11:34;;;;;;;13.23;6.75;;;;;;;;;;5071656;28;20562;-63
2022/01/01 00:14:00;;;;;;;15.00;6.85;;;;;;;;;;5071434;28;20026;-61
2022/01/01 00:16:26;;;;;;;10.52;6.15;;;;;;;;;;5071311;28;20027;-76
2022/01/01 00:18:52;;;;;;;12.57;6.18;;;;;;;;;;5071410;28;20024;-74
2022/01/01 00:21:18;;;;;;;17.67;7.03;;;;;;;;;;5071244;28;20098;-67
2022/01/01 00:23:44;;;;;;;14.43;7.53;;;;;;;;;;5080627;28;20529;-76
2022/01/01 00:26:10;;;;;;;12.95;6.43;;;;;;;;;;5091600;28;20107;-69
2022/01/01 00:28:36;;;;;;;14.07;7.00;;;;;;;;;;5081388;28;20032;-64
2022/01/01 00:31:03;;;;;;;11.73;6.03;;;;;;;;;;5071347;28;20032;-69
2022/01/01 00:33:29;;;;;;;11.07;6.45;;;;;;;;;;5069941;28;20023;-76
2022/01/01 00:35:56;;;;;;;10.02;5.75;;;;;;;;;;5068425;28;20507;-65
2022/01/01 00:38:22;;;;;;;13.25;6.88;;;;;;;;;;5088814;28;20032;-67
2022/01/01 00:40:48;;;;;;;13.32;6.10;;;;;;;;;;5091605;28;20020;-67
2022/01/01 00:43:14;;;;;;;22.42;6.30;;;;;;;;;;5091356;28;20381;-72
2022/01/01 00:45:40;;;;;;;14.43;6.43;;;;;;;;;;5090612;28;20023;-63
2022/01/01 00:48:06;;;;;;;11.60;5.60;;;;;;;;;;5090053;28;20091;-62
2022/01/01 00:50:33;;;;;;;11.98;5.15;;;;;;;;;;5091072;28;20039;-67
2022/01/01 00:52:59;;;;;;;12.63;5.95;;;;;;;;;;5091353;28;20028;-72
2022/01/01 00:55:25;;;;;;;13.27;5.93;;;;;;;;;;5091319;28;20024;-64
2022/01/01 00:57:51;;;;;;;15.15;5.88;;;;;;;;;;5090826;28;20020;-61
2022/01/01 01:00:17;;;;;;;14.45;5.50;;;;;;;;;;5091262;28;20042;-64
2022/01/01 01:02:43;;;;;;;9.82;5.32;;;;;;;;;;5091114;28;20047;-65
2022/01/01 01:05:09;;;;;;;12.93;5.20;;;;;;;;;;5091084;28;20113;-71
2022/01/01 01:07:35;;;;;;;13.20;5.80;;;;;;;;;;5090933;28;20036;-69
2022/01/01 01:10:02;;;;;;;12.40;5.70;;;;;;;;;;5091303;28;20474;-75
2022/01/01 01:12:37;;;;;;;11.85;5.45;;;;;;;;;;5091379;28;20020;-63
2022/01/01 01:15:04;;;;;;;11.85;6.07;;;;;;;;;;5091079;28;20016;-61
2022/01/01 01:17:30;;;;;;;11.27;5.00;;;;;;;;;;5090931;28;20051;-71
2022/01/01 01:19:56;;;;;;;12.75;5.47;;;;;;;;;;5091034;28;20373;-64
2022/01/01 01:22:22;;;;;;;8.20;4.70;;;;;;;;;;5078599;28;20050;-62
2022/01/01 01:24:48;;;;;;;8.48;5.05;;;;;;;;;;5071373;28;20032;-73
2022/01/01 01:27:14;;;;;;;9.55;5.15;;;;;;;;;;5071873;28;20056;-74
2022/01/01 01:29:43;;;;;;;10.43;5.60;;;;;;;;;;5091293;28;20071;-64
2022/01/01 01:32:09;;;;;;;11.82;6.18;;;;;;;;;;5092551;28;20103;-73
2022/01/01 01:34:35;;;;;;;12.35;5.57;;;;;;;;;;5091522;28;20491;-62
2022/01/01 01:37:02;;;;;;;10.52;4.97;;;;;;;;;;5090516;28;20480;-66
2022/01/01 01:39:28;;;;;;;11.43;4.35;;;;;;;;;;5091530;28;20126;-65
2022/01/01 01:41:54;;;;;;;13.00;5.47;;;;;;;;;;5091287;28;20111;-66
2022/01/01 01:44:24;;;;;;;13.82;5.68;;;;;;;;;;5090567;28;20031;-68
2022/01/01 01:46:50;;;;;;;9.65;5.22;;;;;;;;;;5090544;28;20021;-68
2022/01/01 01:49:16;;;;;;;9.23;5.53;;;;;;;;;;5090821;28;20032;-62
2022/01/01 01:51:42;;;;;;;16.50;6.10;;;;;;;;;;5090472;28;20058;-73
2022/01/01 01:54:09;;;;;;;12.05;5.75;;;;;;;;;;5094201;28;20031;-70
2022/01/01 01:56:36;;;;;;;11.73;6.10;;;;;;;;;;5092967;28;20117;-64
2022/01/01 01:59:02;;;;;;;9.98;5.15;;;;;;;;;;5094384;28;20050;-70
2022/01/01 02:01:28;;;;;;;11.00;5.75;;;;;;;;;;5093096;28;20097;-66
2022/01/01 02:03:56;;;;;;;15.80;5.72;;;;;;;;;;5093986;28;20028;-66
2022/01/01 02:06:23;;;;;;;13.18;4.93;;;;;;;;;;5092992;28;20096;-71
2022/01/01 02:08:51;;;;;;;12.23;5.50;;;;;;;;;;5093377;28;20036;-70
2022/01/01 02:11:19;;;;;;;13.35;5.55;;;;;;;;;;5094069;28;20020;-74
2022/01/01 02:18:48;;;;;;;12.68;5.80;;;;;;;;;;5073996;28;20047;-64
2022/01/01 02:21:14;;;;;;;11.65;5.72;;;;;;;;;;5074924;28;20048;-63
2022/01/01 02:23:46;;;;;;;11.63;5.43;;;;;;;;;;5094963;28;20028;-63
2022/01/01 02:26:15;;;;;;;13.25;6.80;;;;;;;;;;5096229;28;20048;-63
2022/01/01 02:28:45;;;;;;;11.43;5.00;;;;;;;;;;5088320;28;20032;-63
2022/01/01 02:31:11;;;;;;;11.18;5.05;;;;;;;;;;5087918;28;20023;-72
2022/01/01 02:33:38;;;;;;;9.55;4.88;;;;;;;;;;5094249;28;20024;-66
2022/01/01 02:36:04;;;;;;;9.73;4.40;;;;;;;;;;5094445;28;20082;-71
2022/01/01 02:38:32;;;;;;;8.10;4.72;;;;;;;;;;5094846;28;20024;-66
2022/01/01 02:40:59;;;;;;;9.82;4.78;;;;;;;;;;5094124;28;20030;-70
2022/01/01 02:43:25;;;;;;;11.07;4.63;;;;;;;;;;5094783;28;20028;-64
2022/01/01 02:45:52;;;;;;;7.07;3.95;;;;;;;;;;5094990;28;20103;-67
2022/01/01 02:48:18;;;;;;;10.80;4.55;;;;;;;;;;5095760;28;20126;-65
2022/01/01 02:50:44;;;;;;;8.13;3.92;;;;;;;;;;5094084;28;20024;-68
2022/01/01 02:53:13;;;;;;;8.98;4.30;;;;;;;;;;5094304;28;20028;-65
2022/01/01 02:55:39;;;;;;;10.05;4.07;;;;;;;;;;5094220;28;20024;-66
2022/01/01 02:58:05;;;;;;;9.57;4.85;;;;;;;;;;5092089;28;20020;-70
2022/01/01 03:00:31;;;;;;;6.30;3.78;;;;;;;;;;5093241;28;20020;-68
2022/01/01 03:02:57;;;;;;;8.25;3.72;;;;;;;;;;5093241;28;20025;-66
2022/01/01 03:05:23;;;;;;;10.68;4.53;;;;;;;;;;5094261;28;20081;-64
2022/01/01 03:07:49;;;;;;;7.60;4.30;;;;;;;;;;5093399;28;20031;-63
2022/01/01 03:10:16;;;;;;;7.72;4.00;;;;;;;;;;5076195;28;20366;-68
2022/01/01 03:12:42;;;;;;;12.75;4.00;;;;;;;;;;5084755;28;20024;-79
2022/01/01 03:15:08;;;;;;;7.47;4.30;;;;;;;;;;5093049;28;20038;-72
2022/01/01 03:17:34;;;;;;;14.35;4.72;;;;;;;;;;5092952;28;20708;-70
2022/01/01 03:20:00;;;;;;;10.07;4.45;;;;;;;;;;5091770;28;20128;-70
2022/01/01 03:22:26;;;;;;;9.70;4.28;;;;;;;;;;5092842;28;20050;-66
2022/01/01 03:24:52;;;;;;;7.95;4.57;;;;;;;;;;5091519;28;20023;-67
2022/01/01 03:27:18;;;;;;;9.75;4.55;;;;;;;;;;5091468;28;20036;-65
2022/01/01 03:29:44;;;;;;;8.80;4.82;;;;;;;;;;5092786;28;20020;-71
2022/01/01 03:32:10;;;;;;;7.50;4.47;;;;;;;;;;5092751;28;20028;-70
2022/01/01 03:34:37;;;;;;;8.48;4.80;;;;;;;;;;5092796;28;20030;-67
2022/01/01 03:37:03;;;;;;;8.57;4.90;;;;;;;;;;5092663;28;20024;-65
2022/01/01 03:39:29;;;;;;;8.13;4.82;;;;;;;;;;5091285;28;20443;-67
2022/01/01 03:41:55;;;;;;;7.97;4.80;;;;;;;;;;5092677;28;20165;-71
2022/01/01 03:44:21;;;;;;;9.20;4.82;;;;;;;;;;5092660;28;20027;-74
2022/01/01 03:46:47;;;;;;;7.18;4.82;;;;;;;;;;5091263;28;20599;-74
2022/01/01 03:49:14;;;;;;;9.95;5.20;;;;;;;;;;5092571;28;20424;-67
2022/01/01 03:51:41;;;;;;;9.90;5.10;;;;;;;;;;5092593;28;20028;-67
2022/01/01 03:54:07;;;;;;;11.18;4.80;;;;;;;;;;5092614;28;20024;-75
2022/01/01 03:56:36;;;;;;;8.73;5.47;;;;;;;;;;5093207;28;20017;-75
2022/01/01 03:59:03;;;;;;;10.20;5.03;;;;;;;;;;5093323;28;20047;-75
2022/01/01 04:01:29;;;;;;;9.38;4.93;;;;;;;;;;5096255;28;20461;-72
2022/01/01 04:03:55;;;;;;;11.07;4.95;;;;;;;;;;5091550;28;20023;-70
2022/01/01 04:06:21;;;;;;;10.27;5.57;;;;;;;;;;5092105;28;20032;-69
2022/01/01 04:08:47;;;;;;;8.98;5.25;;;;;;;;;;5091908;28;20481;-64
2022/01/01 04:11:13;;;;;;;8.90;5.30;;;;;;;;;;5091998;28;20027;-72
2022/01/01 04:13:39;;;;;;;9.10;5.05;;;;;;;;;;5092086;28;20069;-66
2022/01/01 04:16:06;;;;;;;13.63;5.80;;;;;;;;;;5091825;28;20020;-63
2022/01/01 04:18:38;;;;;;;7.18;4.60;;;;;;;;;;5092046;28;20043;-64
2022/01/01 04:21:06;;;;;;;8.40;5.32;;;;;;;;;;5091700;28;20032;-62
2022/01/01 04:23:32;;;;;;;8.00;4.78;;;;;;;;;;5090631;28;20020;-62
2022/01/01 04:25:58;;;;;;;8.52;5.13;;;;;;;;;;5091879;28;20067;-62
2022/01/01 04:28:24;;;;;;;7.72;5.05;;;;;;;;;;5091746;28;20028;-65
2022/01/01 04:30:50;;;;;;;10.40;5.55;;;;;;;;;;5091810;28;20031;-63
2022/01/01 04:33:16;;;;;;;9.43;5.15;;;;;;;;;;5091736;28;20020;-67
2022/01/01 04:35:42;;;;;;;7.85;4.80;;;;;;;;;;5091535;28;20047;-67
2022/01/01 04:38:20;;;;;;;7.85;4.55;;;;;;;;;;5091714;28;20031;-66
2022/01/01 04:40:46;;;;;;;8.52;4.75;;;;;;;;;;5091745;28;20016;-62
2022/01/01 04:43:12;;;;;;;7.90;4.32;;;;;;;;;;5091578;28;20026;-66
2022/01/01 04:45:38;;;;;;;8.25;4.35;;;;;;;;;;5091370;28;20047;-64
2022/01/01 04:48:05;;;;;;;7.97;4.65;;;;;;;;;;5091359;28;20032;-73
2022/01/01 04:50:32;;;;;;;7.88;4.85;;;;;;;;;;5090411;28;20020;-65
2022/01/01 04:52:58;;;;;;;8.07;4.90;;;;;;;;;;5091665;28;20016;-64
2022/01/01 04:55:25;;;;;;;8.40;5.03;;;;;;;;;;5091377;28;20016;-64
2022/01/01 04:57:51;;;;;;;8.63;5.03;;;;;;;;;;5090092;28;20020;-68
2022/01/01 05:00:17;;;;;;;9.10;4.97;;;;;;;;;;5091444;28;20024;-63
2022/01/01 05:02:43;;;;;;;8.40;4.72;;;;;;;;;;5091550;28;20060;-63
2022/01/01 05:05:09;;;;;;;6.75;3.92;;;;;;;;;;5091602;28;20016;-68
2022/01/01 05:07:35;;;;;;;7.25;4.50;;;;;;;;;;5091409;28;20024;-64
2022/01/01 05:10:01;;;;;;;8.32;4.95;;;;;;;;;;5077915;28;20033;-62
2022/01/01 05:12:27;;;;;;;7.47;4.25;;;;;;;;;;5079155;28;20035;-64
2022/01/01 05:14:53;;;;;;;6.93;4.18;;;;;;;;;;5090245;28;20024;-64
2022/01/01 05:17:19;;;;;;;8.05;3.92;;;;;;;;;;5090182;28;20025;-67
2022/01/01 05:19:45;;;;;;;5.93;3.60;;;;;;;;;;5091094;28;20101;-68
2022/01/01 05:22:11;;;;;;;7.55;3.90;;;;;;;;;;5090994;28;20044;-67
2022/01/01 05:24:37;;;;;;;6.47;3.92;;;;;;;;;;5089983;28;20020;-65
2022/01/01 05:27:04;;;;;;;6.60;3.92;;;;;;;;;;5093146;28;20035;-67
2022/01/01 05:29:30;;;;;;;6.35;3.50;;;;;;;;;;5095322;28;20024;-71
2022/01/01 05:31:56;;;;;;;8.38;4.25;;;;;;;;;;5095120;28;20139;-63
2022/01/01 05:34:22;;;;;;;6.53;3.53;;;;;;;;;;5095138;28;20076;-70
2022/01/01 05:36:48;;;;;;;9.45;4.05;;;;;;;;;;5095057;28;20020;-68
2022/01/01 05:39:14;;;;;;;6.75;3.45;;;;;;;;;;5095134;28;20054;-66
2022/01/01 05:41:40;;;;;;;6.50;3.50;;;;;;;;;;5094957;28;20020;-64
2022/01/01 05:44:06;;;;;;;7.22;3.78;;;;;;;;;;5094982;28;20699;-66
2022/01/01 05:46:32;;;;;;;8.45;3.15;;;;;;;;;;5094997;28;20166;-73
2022/01/01 05:48:58;;;;;;;5.75;3.30;;;;;;;;;;5094575;28;20469;-64
2022/01/01 05:51:24;;;;;;;5.88;3.22;;;;;;;;;;5094595;28;20528;-72
2022/01/01 05:53:51;;;;;;;7.00;3.42;;;;;;;;;;5094808;28;20051;-73
2022/01/01 05:56:17;;;;;;;5.43;2.78;;;;;;;;;;5094714;28;20031;-66
2022/01/01 05:58:43;;;;;;;6.43;3.22;;;;;;;;;;5094782;28;20465;-73
2022/01/01 06:01:09;;;;;;;6.78;3.47;;;;;;;;;;5093349;28;20607;-73
2022/01/01 06:03:35;;;;;;;5.88;3.03;;;;;;;;;;5094639;28;20028;-68
2022/01/01 06:06:01;;;;;;;7.13;3.33;;;;;;;;;;5094596;28;20109;-75
2022/01/01 06:08:28;;;;;;;5.22;2.80;;;;;;;;;;5092718;28;20050;-72
2022/01/01 06:10:55;;;;;;;6.82;3.00;;;;;;;;;;5074111;28;20467;-71
2022/01/01 06:13:21;;;;;;;6.15;3.20;;;;;;;;;;5074558;28;20398;-78
2022/01/01 06:15:47;;;;;;;6.45;2.80;;;;;;;;;;5074752;28;20016;-66
2022/01/01 06:18:13;;;;;;;6.40;2.72;;;;;;;;;;5077807;28;20056;-66
2022/01/01 06:20:39;;;;;;;5.35;3.05;;;;;;;;;;5076904;28;20098;-65
2022/01/01 06:23:06;;;;;;;6.20;2.63;;;;;;;;;;5073818;28;20082;-63
2022/01/01 06:25:33;;;;;;;5.05;2.60;;;;;;;;;;5073603;28;20024;-63
2022/01/01 06:27:59;;;;;;;5.88;2.25;;;;;;;;;;5073573;28;20036;-63
2022/01/01 06:30:32;;;;;;;5.10;2.30;;;;;;;;;;5073971;28;20029;-63
2022/01/01 06:32:58;;;;;;;4.40;2.33;;;;;;;;;;5073610;28;20099;-72
2022/01/01 06:35:24;;;;;;;5.75;2.30;;;;;;;;;;5073476;28;20017;-63
2022/01/01 06:37:50;;;;;;;3.95;2.08;;;;;;;;;;5072799;28;20077;-69
2022/01/01 06:40:16;;;;;;;5.35;2.53;;;;;;;;;;5072785;28;20025;-73
2022/01/01 06:42:43;;;;;;;4.85;2.40;;;;;;;;;;5072707;28;20050;-64
2022/01/01 06:45:09;;;;;;;5.47;2.55;;;;;;;;;;5071312;28;20013;-69
2022/01/01 06:47:35;;;;;;;6.10;2.08;;;;;;;;;;5072491;28;20473;-72
2022/01/01 06:50:01;;;;;;;4.00;2.20;;;;;;;;;;5073608;28;20491;-70
2022/01/01 06:52:27;;;;;;;5.25;2.22;;;;;;;;;;5073396;28;20025;-69
2022/01/01 06:54:53;;;;;;;3.50;1.90;;;;;;;;;;5073453;28;20019;-69
2022/01/01 06:57:19;;;;;;;3.47;1.73;;;;;;;;;;5073309;28;20017;-66
2022/01/01 06:59:45;;;;;;;4.68;2.13;;;;;;;;;;5073838;28;20469;-77
2022/01/01 07:02:11;;;;;;;3.03;1.50;;;;;;;;;;5073540;28;20537;-81
2022/01/01 07:04:37;;;;;;;6.55;1.90;;;;;;;;;;5073004;28;20393;-71
2022/01/01 07:07:03;;;;;;;4.00;1.65;;;;;;;;;;5073471;28;20429;-70
2022/01/01 07:09:29;;;;;;;3.38;1.73;;;;;;;;;;5073063;28;20108;-63
2022/01/01 07:11:57;;;;;;;3.80;1.92;;;;;;;;;;5072797;28;20021;-63
2022/01/01 07:14:23;;;;;;;3.90;1.60;;;;;;;;;;5072734;28;20021;-63
2022/01/01 07:16:49;;;;;;;4.32;1.95;;;;;;;;;;5072722;28;20103;-75
2022/01/01 07:19:15;;;;;;;3.20;1.50;;;;;;;;;;5073080;28;20025;-68
2022/01/01 07:21:41;;;;;;;4.63;1.83;;;;;;;;;;5071630;28;20516;-63
2022/01/01 07:24:07;;;;;;;4.18;1.75;;;;;;;;;;5072956;28;20021;-72
2022/01/01 07:26:34;;;;;;;5.47;1.52;;;;;;;;;;5072385;28;20074;-70
2022/01/01 07:29:00;;;;;;;7.22;2.17;;;;;;;;;;5073126;28;20044;-65
2022/01/01 07:31:26;;;;;;;7.05;1.83;;;;;;;;;;5071436;28;20520;-70
2022/01/01 07:33:52;;;;;;;2.83;1.42;;;;;;;;;;5072929;28;20059;-68
2022/01/01 07:36:18;;;;;;;3.30;1.58;;;;;;;;;;5073051;28;20021;-70
2022/01/01 07:38:44;;;;;;;4.10;1.65;;;;;;;;;;5075909;28;20017;-69
2022/01/01 07:41:11;;;;;;;3.10;1.52;;;;;;;;;;5077564;28;20067;-63
2022/01/01 07:43:38;;;;;;;4.10;1.85;;;;;;;;;;5072981;28;20090;-69
2022/01/01 07:46:04;;;;;;;3.55;1.67;;;;;;;;;;5072592;28;20044;-69
2022/01/01 07:48:30;;;;;;;2.95;1.65;;;;;;;;;;5072019;28;20033;-71
2022/01/01 07:50:56;;;;;;;5.18;1.65;;;;;;;;;;5072180;28;20024;-70
2022/01/01 07:53:22;;;;;;;3.03;1.55;;;;;;;;;;5070779;28;20024;-64
2022/01/01 07:55:49;;;;;;;3.58;1.45;;;;;;;;;;5072054;28;20033;-70
2022/01/01 07:58:15;;;;;;;4.05;1.58;;;;;;;;;;5072062;28;20020;-65
2022/01/01 08:00:41;;;;;;;3.88;1.88;;;;;;;;;;5071999;28;20021;-66
2022/01/01 08:03:07;;;;;;;3.70;1.50;;;;;;;;;;5071821;28;20060;-65
2022/01/01 08:05:33;;;;;;;3.00;1.30;;;;;;;;;;5071816;28;20017;-65
2022/01/01 08:07:59;;;;;;;4.97;1.60;;;;;;;;;;5071775;28;20033;-65
2022/01/01 08:10:25;;;;;;;3.42;1.55;;;;;;;;;;5071917;28;20025;-64
2022/01/01 08:12:51;;;;;;;3.67;1.30;;;;;;;;;;5072032;28;20495;-63
2022/01/01 08:15:17;;;;;;;4.93;1.67;;;;;;;;;;5071806;28;20024;-71
2022/01/01 08:17:43;;;;;;;4.10;1.40;;;;;;;;;;5070517;28;20021;-64
2022/01/01 08:20:10;;;;;;;2.65;1.20;;;;;;;;;;5071577;28;20036;-65
2022/01/01 08:22:36;;;;;;;3.75;1.60;;;;;;;;;;5071738;28;20029;-62
2022/01/01 08:25:02;;;;;;;3.60;1.40;;;;;;;;;;5071851;28;20400;-73
2022/01/01 08:27:28;;;;;;;4.25;1.52;;;;;;;;;;5071732;28;20113;-66
2022/01/01 08:29:54;;;;;;;2.70;1.48;;;;;;;;;;5071844;28;20050;-63
2022/01/01 08:32:20;;;;;;;4.75;1.73;;;;;;;;;;5072334;28;20020;-66
2022/01/01 08:34:46;;;;;;;5.63;1.52;;;;;;;;;;5074580;28;20028;-66
2022/01/01 08:37:12;;;;;;;3.90;1.58;;;;;;;;;;5071656;28;20017;-63
2022/01/01 08:39:38;;;;;;;4.13;1.70;;;;;;;;;;5071569;28;20036;-69
2022/01/01 08:42:05;;;;;;;4.10;1.65;;;;;;;;;;5071361;28;20124;-66
2022/01/01 08:44:32;;;;;;;4.85;1.55;;;;;;;;;;5071500;28;20027;-71
2022/01/01 08:46:58;;;;;;;3.25;1.35;;;;;;;;;;5076509;28;20481;-70
2022/01/01 08:49:24;;;;;;;2.97;1.35;;;;;;;;;;5080272;28;20078;-75
2022/01/01 08:51:50;;;;;;;9.98;1.45;;;;;;;;;;5088599;28;20020;-78
2022/01/01 08:54:16;;;;;;;3.65;1.33;;;;;;;;;;5089958;28;20031;-67
2022/01/01 08:56:43;;;;;;;4.05;1.55;;;;;;;;;;5089852;28;20008;-70
2022/01/01 08:59:09;;;;;;;4.95;1.52;;;;;;;;;;5090469;28;20017;-67
2022/01/01 09:01:35;;;;;;;6.50;1.70;;;;;;;;;;5092472;28;20024;-69
2022/01/01 09:04:01;;;;;;;7.55;1.67;;;;;;;;;;5095707;28;20021;-67
2022/01/01 09:06:27;;;;;;;22.48;5.05;;;;;;;;;;5095454;28;20024;-73
2022/01/01 09:08:53;;;;;;;17.67;3.25;;;;;;;;;;5095545;28;20485;-63
2022/01/01 09:11:19;;;;;;;11.18;2.78;;;;;;;;;;5096040;28;20066;-62
2022/01/01 09:13:46;;;;;;;7.95;2.63;;;;;;;;;;5095868;28;20106;-61
2022/01/01 09:16:13;;;;;;;9.43;2.47;;;;;;;;;;5095712;28;20032;-63
2022/01/01 09:18:40;;;;;;;15.70;2.20;;;;;;;;;;5094260;28;20073;-66
2022/01/01 09:21:06;;;;;;;6.05;1.85;;;;;;;;;;5093878;28;20040;-63
2022/01/01 09:23:32;;;;;;;7.82;2.35;;;;;;;;;;5094304;28;20077;-73
2022/01/01 09:26:00;;;;;;;7.32;2.38;;;;;;;;;;5094051;28;20024;-75
2022/01/01 09:28:27;;;;;;;5.18;2.10;;;;;;;;;;5095100;28;20067;-64
2022/01/01 09:30:53;;;;;;;6.43;2.00;;;;;;;;;;5095205;28;20017;-74
2022/01/01 09:33:19;;;;;;;6.28;1.98;;;;;;;;;;5095704;28;20028;-68
2022/01/01 09:35:45;;;;;;;9.15;2.25;;;;;;;;;;5095144;28;20020;-66
2022/01/01 09:38:11;;;;;;;5.25;2.17;;;;;;;;;;5095083;28;20024;-69
2022/01/01 09:40:37;;;;;;;7.25;2.40;;;;;;;;;;5095175;28;20099;-78
2022/01/01 09:43:03;;;;;;;4.80;1.83;;;;;;;;;;5094563;28;20031;-69
2022/01/01 09:45:30;;;;;;;4.65;1.83;;;;;;;;;;5094957;28;20080;-68
2022/01/01 09:47:56;;;;;;;6.18;1.67;;;;;;;;;;5094764;28;20028;-77
2022/01/01 09:50:22;;;;;;;5.93;1.88;;;;;;;;;;5094595;28;20024;-71
2022/01/01 09:52:48;;;;;;;15.15;2.42;;;;;;;;;;5074252;28;20025;-76
2022/01/01 09:55:14;;;;;;;22.42;3.42;;;;;;;;;;5074680;28;20020;-73
2022/01/01 09:57:40;;;;;;;12.52;2.10;;;;;;;;;;5073485;28;20024;-74
2022/01/01 10:00:07;;;;;;;16.60;3.17;;;;;;;;;;5073314;28;20033;-69
2022/01/01 10:02:33;;;;;;;5.18;1.95;;;;;;;;;;5073373;28;20102;-72
2022/01/01 10:05:04;;;;;;;11.88;1.90;;;;;;;;;;5072302;28;20431;-71
2022/01/01 10:07:30;;;;;;;8.07;1.75;;;;;;;;;;5074009;28;20028;-75
2022/01/01 10:09:56;;;;;;;8.70;2.03;;;;;;;;;;5073365;28;20027;-70
2022/01/01 10:12:38;;;;;;;7.25;2.00;;;;;;;;;;5073746;28;20060;-66
2022/01/01 10:15:06;;;;;;;13.75;2.33;;;;;;;;;;5075808;28;20033;-68
2022/01/01 10:17:32;;;;;;;12.13;1.90;;;;;;;;;;5094771;28;20488;-73
2022/01/01 10:19:58;;;;;;;16.00;1.55;;;;;;;;;;5097362;28;20476;-67
2022/01/01 10:22:25;;;;;;;14.02;2.30;;;;;;;;;;5093863;28;20055;-64
2022/01/01 10:27:57;;;;;;;8.25;2.58;;;;;;;;;;5094082;28;20035;-73
2022/01/01 10:30:29;;;;;;;13.57;2.10;;;;;;;;;;5093359;28;20549;-74
2022/01/01 10:33:11;;;;;;;8.73;1.88;;;;;;;;;;5094190;28;20024;-70
2022/01/01 10:35:38;;;;;;;9.77;1.60;;;;;;;;;;5093775;28;20078;-79
2022/01/01 10:38:10;;;;;;;7.53;1.70;;;;;;;;;;5093849;28;20048;-77
2022/01/01 10:40:36;;;;;;;10.68;1.98;;;;;;;;;;5094022;28;20020;-70
2022/01/01 10:43:02;;;;;;;10.20;1.75;;;;;;;;;;5093743;28;20024;-68
2022/01/01 10:45:29;;;;;;;6.40;1.83;;;;;;;;;;5092329;28;20500;-66
2022/01/01 10:48:06;;;;;;;10.55;1.40;;;;;;;;;;5092493;28;20101;-70
2022/01/01 10:50:42;;;;;;;5.65;1.67;;;;;;;;;;5093501;28;20055;-63
2022/01/01 10:53:15;;;;;;;6.25;1.70;;;;;;;;;;5093631;28;20028;-66
2022/01/01 10:55:42;;;;;;;5.57;1.50;;;;;;;;;;5093412;28;20028;-68
2022/01/01 10:58:09;;;;;;;6.45;1.60;;;;;;;;;;5091949;28;20108;-62
2022/01/01 11:00:42;;;;;;;5.70;1.60;;;;;;;;;;5093451;28;20024;-64
2022/01/01 11:03:09;;;;;;;6.97;1.38;;;;;;;;;;5093491;28;20103;-64
2022/01/01 11:05:37;;;;;;;8.95;1.67;;;;;;;;;;5093270;28;20495;-67
2022/01/01 11:08:04;;;;;;;5.32;1.27;;;;;;;;;;5093090;28;20500;-63
2022/01/01 11:10:30;;;;;;;3.55;1.40;;;;;;;;;;5093601;28;20056;-74
2022/01/01 11:12:57;;;;;;;7.22;1.50;;;;;;;;;;5092942;28;20028;-66
2022/01/01 11:15:23;;;;;;;6.32;1.77;;;;;;;;;;5093241;28;20086;-63
2022/01/01 11:17:49;;;;;;;4.97;1.33;;;;;;;;;;5090378;28;20024;-71
2022/01/01 11:20:19;;;;;;;6.30;1.30;;;;;;;;;;5091747;28;20032;-64
2022/01/01 11:22:45;;;;;;;3.30;1.25;;;;;;;;;;5091988;28;20024;-72
2022/01/01 11:25:11;;;;;;;4.40;1.45;;;;;;;;;;5091372;28;20028;-76
2022/01/01 11:27:38;;;;;;;4.82;1.30;;;;;;;;;;5092305;28;20016;-75
2022/01/01 11:30:05;;;;;;;8.15;1.73;;;;;;;;;;5092079;28;20032;-65
2022/01/01 11:32:45;;;;;;;9.88;2.42;;;;;;;;;;5093704;28;20029;-69
2022/01/01 11:35:12;;;;;;;5.75;1.70;;;;;;;;;;5093187;28;20128;-63
2022/01/01 11:38:00;;;;;;;7.07;2.00;;;;;;;;;;5093078;28;20028;-71
2022/01/01 11:40:27;;;;;;;5.43;1.85;;;;;;;;;;5091441;28;20388;-73
2022/01/01 11:42:53;;;;;;;8.27;2.20;;;;;;;;;;5092961;28;20472;-65
2022/01/01 11:45:38;;;;;;;5.57;2.05;;;;;;;;;;5092351;28;20024;-64
2022/01/01 11:48:23;;;;;;;4.47;1.55;;;;;;;;;;5093221;28;20050;-71
2022/01/01 11:50:49;;;;;;;7.93;1.70;;;;;;;;;;5093150;28;20047;-63
2022/01/01 11:53:28;;;;;;;6.60;1.55;;;;;;;;;;5093242;28;20393;-71
2022/01/01 11:56:14;;;;;;;8.52;2.22;;;;;;;;;;5085354;28;20043;-64
2022/01/01 11:59:06;;;;;;;6.90;1.98;;;;;;;;;;5077411;28;20059;-68
2022/01/01 12:01:40;;;;;;;8.02;2.40;;;;;;;;;;5073985;28;20028;-64
2022/01/01 12:04:22;;;;;;;7.13;1.52;;;;;;;;;;5091901;28;20024;-62
2022/01/01 12:06:52;;;;;;;6.03;1.38;;;;;;;;;;5071696;28;20469;-73
2022/01/01 12:09:18;;;;;;;4.07;1.50;;;;;;;;;;5071676;28;20140;-70
2022/01/01 12:11:50;;;;;;;9.35;1.90;;;;;;;;;;5071740;28;20039;-66
2022/01/01 12:14:28;;;;;;;7.35;1.80;;;;;;;;;;5070459;28;20024;-69
2022/01/01 12:16:55;;;;;;;6.97;1.50;;;;;;;;;;5070618;28;20042;-70
2022/01/01 12:19:25;;;;;;;5.05;1.38;;;;;;;;;;5070780;28;20071;-68
2022/01/01 12:22:05;;;;;;;4.15;1.52;;;;;;;;;;5069239;28;20135;-67
2022/01/01 12:24:35;;;;;;;6.47;1.20;;;;;;;;;;5070664;28;20039;-68
2022/01/01 12:27:05;;;;;;;8.60;2.00;;;;;;;;;;5071422;28;20016;-69
2022/01/01 12:29:31;;;;;;;4.07;1.30;;;;;;;;;;5070186;28;20186;-66
2022/01/01 12:31:58;;;;;;;4.47;1.50;;;;;;;;;;5071448;28;20024;-71
2022/01/01 12:34:24;;;;;;;5.18;1.35;;;;;;;;;;5071272;28;20029;-65
2022/01/01 12:36:52;;;;;;;2.70;1.15;;;;;;;;;;5071258;28;20029;-67
2022/01/01 12:39:18;;;;;;;5.88;1.40;;;;;;;;;;5070166;28;20031;-70
2022/01/01 12:41:45;;;;;;;3.38;1.25;;;;;;;;;;5070256;28;20016;-66
2022/01/01 12:44:11;;;;;;;3.65;1.25;;;;;;;;;;5071476;28;20623;-68
2022/01/01 12:46:39;;;;;;;3.85;1.30;;;;;;;;;;5071354;28;20025;-74
2022/01/01 12:49:06;;;;;;;4.07;1.30;;;;;;;;;;5070107;28;20493;-70
2022/01/01 12:51:36;;;;;;;5.57;1.33;;;;;;;;;;5071252;28;20483;-70
2022/01/01 12:54:07;;;;;;;4.47;1.10;;;;;;;;;;5071544;28;20027;-69
2022/01/01 12:56:34;;;;;;;2.63;1.15;;;;;;;;;;5071630;28;20021;-69
2022/01/01 12:59:03;;;;;;;3.55;1.20;;;;;;;;;;5071340;28;20029;-67
2022/01/01 13:01:33;;;;;;;6.32;1.20;;;;;;;;;;5071274;28;20107;-64
2022/01/01 13:04:01;;;;;;;2.80;1.10;;;;;;;;;;5071106;28;20056;-67
2022/01/01 13:06:31;;;;;;;3.25;1.20;;;;;;;;;;5071019;28;20483;-74
2022/01/01 13:08:59;;;;;;;3.50;1.20;;;;;;;;;;5069670;28;20555;-63
2022/01/01 13:11:25;;;;;;;2.88;0.90;;;;;;;;;;5071117;28;20108;-70
2022/01/01 13:13:51;;;;;;;6.40;1.08;;;;;;;;;;5071270;28;20016;-67
2022/01/01 13:16:18;;;;;;;4.00;1.15;;;;;;;;;;5069786;28;20025;-68
2022/01/01 13:18:44;;;;;;;1.45;0.85;;;;;;;;;;5071000;28;20032;-68
2022/01/01 13:21:10;;;;;;;2.20;0.98;;;;;;;;;;5069426;28;20048;-63
2022/01/01 13:23:37;;;;;;;4.00;1.10;;;;;;;;;;5070917;28;20473;-66
2022/01/01 13:26:04;;;;;;;2.75;1.10;;;;;;;;;;5070936;28;20023;-69
2022/01/01 13:28:33;;;;;;;1.85;0.88;;;;;;;;;;5070854;28;20064;-74
2022/01/01 13:31:00;;;;;;;2.13;0.90;;;;;;;;;;5070721;28;20052;-66
2022/01/01 13:33:26;;;;;;;2.65;0.90;;;;;;;;;;5071003;28;20029;-72
2022/01/01 13:35:54;;;;;;;3.13;1.00;;;;;;;;;;5070889;28;20023;-67
2022/01/01 13:38:20;;;;;;;2.65;1.20;;;;;;;;;;5070810;28;20024;-73
2022/01/01 13:40:52;;;;;;;1.95;0.90;;;;;;;;;;5070675;28;20554;-73
2022/01/01 13:43:18;;;;;;;3.70;1.00;;;;;;;;;;5070773;28;20020;-73
2022/01/01 13:45:44;;;;;;;2.05;0.82;;;;;;;;;;5070824;28;20374;-70
2022/01/01 13:48:13;;;;;;;3.35;1.00;;;;;;;;;;5072946;28;20035;-68
2022/01/01 13:50:49;;;;;;;1.10;0.68;;;;;;;;;;5074529;28;20503;-70
2022/01/01 13:53:15;;;;;;;1.92;0.80;;;;;;;;;;5074355;28;20058;-65
2022/01/01 13:55:52;;;;;;;2.70;1.10;;;;;;;;;;5074300;28;20024;-73
2022/01/01 13:58:18;;;;;;;2.83;0.90;;;;;;;;;;5072936;28;20016;-65
2022/01/01 14:00:54;;;;;;;2.53;1.02;;;;;;;;;;5074178;28;20055;-75
2022/01/01 14:03:24;;;;;;;2.10;0.80;;;;;;;;;;5081640;28;20414;-67
2022/01/01 14:05:53;;;;;;;3.80;1.20;;;;;;;;;;5090839;28;20549;-74
2022/01/01 14:08:20;;;;;;;3.70;0.80;;;;;;;;;;5093956;28;20726;-69
2022/01/01 14:10:53;;;;;;;5.97;1.10;;;;;;;;;;5093487;28;20085;-75
2022/01/01 14:13:28;;;;;;;5.03;1.33;;;;;;;;;;5089824;28;20028;-69
2022/01/01 14:15:54;;;;;;;3.67;1.15;;;;;;;;;;5092119;28;20020;-65
2022/01/01 14:18:27;;;;;;;4.30;1.00;;;;;;;;;;5093101;28;20031;-64
2022/01/01 14:20:54;;;;;;;4.10;1.00;;;;;;;;;;5073914;28;20203;-67
2022/01/01 14:23:33;;;;;;;5.50;1.50;;;;;;;;;;5072321;28;20017;-63
2022/01/01 14:26:03;;;;;;;2.75;1.20;;;;;;;;;;5083397;28;20093;-69
2022/01/01 14:28:29;;;;;;;3.20;1.00;;;;;;;;;;5091898;28;20039;-63
2022/01/01 14:30:56;;;;;;;3.22;1.30;;;;;;;;;;5093046;28;20476;-70
2022/01/01 14:33:22;;;;;;;5.43;1.13;;;;;;;;;;5093411;28;20035;-75
2022/01/01 14:35:49;;;;;;;1.85;0.70;;;;;;;;;;5096463;28;20043;-69
2022/01/01 14:38:15;;;;;;;4.63;1.42;;;;;;;;;;5092886;28;20389;-75
2022/01/01 14:40:41;;;;;;;8.38;2.17;;;;;;;;;;5092941;28;20029;-63
2022/01/01 14:43:07;;;;;;;6.03;1.40;;;;;;;;;;5092152;28;20031;-76
2022/01/01 14:45:35;;;;;;;6.13;1.48;;;;;;;;;;5091663;28;20158;-77
2022/01/01 14:48:10;;;;;;;7.03;1.23;;;;;;;;;;5091983;28;20023;-69
2022/01/01 14:50:40;;;;;;;5.53;1.40;;;;;;;;;;5090240;28;20032;-72